sensor_id;sensor_type;location;lat;lon;timestamp;pressure;altitude;pressure_sealevel;temperature;humidity
20624;BME280;10471;42.736;23.346;2023-01-30T00:00:22;95887.00;;;-0.02;100.00
20624;BME280;10471;42.736;23.346;2023-01-30T00:02:47;95892.78;;;0.00;100.00
20624;BME280;10471;42.736;23.346;2023-01-30T00:05:13;95884.22;;;-0.01;100.00
20624;BME280;10471;42.736;23.346;2023-01-30T00:07:38;95869.88;;;-0.03;100.00
20624;BME280;10471;42.736;23.346;2023-01-30T00:10:04;95877.25;;;0.00;100.00
20624;BME280;10471;42.736;23.346;2023-01-30T00:12:29;95875.66;;;-0.01;100.00
20624;BME280;10471;42.736;23.346;2023-01-30T00:14:54;95889.38;;;-0.01;100.00
20624;BME280;10471;42.736;23.346;2023-01-30T00:17:20;95889.78;;;-0.03;100.00
20624;BME280;10471;42.736;23.346;2023-01-30T00:19:45;95891.56;;;-0.04;100.00
20624;BME280;10471;42.736;23.346;2023-01-30T00:22:10;95887.78;;;-0.08;100.00
20624;BME280;10471;42.736;23.346;2023-01-30T00:24:36;95885.97;;;-0.07;100.00
20624;BME280;10471;42.736;23.346;2023-01-30T00:27:01;95885.81;;;-0.06;100.00
20624;BME280;10471;42.736;23.346;2023-01-30T00:29:27;95876.03;;;-0.04;100.00
20624;BME280;10471;42.736;23.346;2023-01-30T00:31:52;95871.06;;;-0.05;100.00
20624;BME280;10471;42.736;23.346;2023-01-30T00:34:17;95870.66;;;-0.03;100.00
20624;BME280;10471;42.736;23.346;2023-01-30T00:36:43;95883.00;;;-0.11;100.00
20624;BME280;10471;42.736;23.346;2023-01-30T00:39:08;95867.66;;;-0.12;100.00
20624;BME280;10471;42.736;23.346;2023-01-30T00:41:33;95876.63;;;-0.15;100.00
20624;BME280;10471;42.736;23.346;2023-01-30T00:44:17;95871.06;;;-0.18;100.00
20624;BME280;10471;42.736;23.346;2023-01-30T00:47:01;95867.84;;;-0.20;100.00
20624;BME280;10471;42.736;23.346;2023-01-30T00:49:30;95875.63;;;-0.14;100.00
20624;BME280;10471;42.736;23.346;2023-01-30T00:51:55;95863.69;;;-0.08;100.00
20624;BME280;10471;42.736;23.346;2023-01-30T00:54:21;95864.47;;;-0.14;100.00
20624;BME280;10471;42.736;23.346;2023-01-30T00:56:46;95861.91;;;-0.14;100.00
20624;BME280;10471;42.736;23.346;2023-01-30T00:59:12;95866.88;;;-0.13;100.00
20624;BME280;10471;42.736;23.346;2023-01-30T01:01:37;95863.28;;;-0.18;100.00
20624;BME280;10471;42.736;23.346;2023-01-30T01:04:03;95878.22;;;-0.14;100.00
20624;BME280;10471;42.736;23.346;2023-01-30T01:06:28;95861.50;;;-0.11;100.00
20624;BME280;10471;42.736;23.346;2023-01-30T01:08:54;95866.25;;;-0.15;100.00
20624;BME280;10471;42.736;23.346;2023-01-30T01:11:20;95863.06;;;-0.23;100.00
20624;BME280;10471;42.736;23.346;2023-01-30T01:13:52;95855.13;;;-0.22;100.00
20624;BME280;10471;42.736;23.346;2023-01-30T01:16:18;95858.28;;;-0.26;100.00
20624;BME280;10471;42.736;23.346;2023-01-30T01:18:43;95853.31;;;-0.21;100.00
20624;BME280;10471;42.736;23.346;2023-01-30T01:21:09;95848.53;;;-0.24;100.00
20624;BME280;10471;42.736;23.346;2023-01-30T01:23:34;95852.53;;;-0.15;100.00
20624;BME280;10471;42.736;23.346;2023-01-30T01:26:01;95842.13;;;-0.28;100.00
20624;BME280;10471;42.736;23.346;2023-01-30T01:28:26;95853.09;;;-0.26;100.00
20624;BME280;10471;42.736;23.346;2023-01-30T01:30:51;95856.31;;;-0.24;100.00
20624;BME280;10471;42.736;23.346;2023-01-30T01:33:17;95846.38;;;-0.21;100.00
20624;BME280;10471;42.736;23.346;2023-01-30T01:35:42;95845.97;;;-0.24;100.00
20624;BME280;10471;42.736;23.346;2023-01-30T01:38:08;95851.13;;;-0.24;100.00
20624;BME280;10471;42.736;23.346;2023-01-30T01:40:33;95852.31;;;-0.20;100.00
20624;BME280;10471;42.736;23.346;2023-01-30T01:43:22;95851.94;;;-0.11;100.00
20624;BME280;10471;42.736;23.346;2023-01-30T01:45:52;95851.13;;;-0.24;100.00
20624;BME280;10471;42.736;23.346;2023-01-30T01:48:26;95857.09;;;-0.17;100.00
20624;BME280;10471;42.736;23.346;2023-01-30T01:51:11;95847.16;;;-0.14;100.00
20624;BME280;10471;42.736;23.346;2023-01-30T01:53:47;95846.75;;;-0.17;100.00
20624;BME280;10471;42.736;23.346;2023-01-30T01:56:16;95852.50;;;-0.28;100.00
20624;BME280;10471;42.736;23.346;2023-01-30T01:58:57;95839.78;;;-0.10;100.00
20624;BME280;10471;42.736;23.346;2023-01-30T02:01:24;95855.31;;;-0.17;100.00
20624;BME280;10471;42.736;23.346;2023-01-30T02:03:54;95846.75;;;-0.24;100.00
20624;BME280;10471;42.736;23.346;2023-01-30T02:06:21;95847.94;;;-0.26;100.00
20624;BME280;10471;42.736;23.346;2023-01-30T02:08:51;95846.34;;;-0.27;100.00
20624;BME280;10471;42.736;23.346;2023-01-30T02:13:49;95835.97;;;-0.27;100.00
20624;BME280;10471;42.736;23.346;2023-01-30T02:16:15;95838.56;;;-0.27;100.00
20624;BME280;10471;42.736;23.346;2023-01-30T02:18:42;95836.78;;;-0.20;100.00
20624;BME280;10471;42.736;23.346;2023-01-30T02:33:11;95830.44;;;-0.24;100.00
20624;BME280;10471;42.736;23.346;2023-01-30T02:35:41;95830.44;;;-0.24;100.00
20624;BME280;10471;42.736;23.346;2023-01-30T02:41:29;95829.59;;;-0.31;100.00
20624;BME280;10471;42.736;23.346;2023-01-30T02:44:04;95821.22;;;-0.33;100.00
20624;BME280;10471;42.736;23.346;2023-01-30T02:51:36;95821.63;;;-0.23;100.00
20624;BME280;10471;42.736;23.346;2023-01-30T02:54:09;95812.88;;;-0.22;100.00
20624;BME280;10471;42.736;23.346;2023-01-30T02:59:18;95819.25;;;-0.31;100.00
20624;BME280;10471;42.736;23.346;2023-01-30T03:07:37;95824.84;;;-0.34;100.00
20624;BME280;10471;42.736;23.346;2023-01-30T03:10:35;95823.81;;;-0.33;100.00
20624;BME280;10471;42.736;23.346;2023-01-30T03:15:44;95803.72;;;-0.38;100.00
20624;BME280;10471;42.736;23.346;2023-01-30T03:18:12;95810.50;;;-0.30;100.00
20624;BME280;10471;42.736;23.346;2023-01-30T03:20:39;95815.28;;;-0.27;100.00
20624;BME280;10471;42.736;23.346;2023-01-30T03:23:05;95800.94;;;-0.30;100.00
20624;BME280;10471;42.736;23.346;2023-01-30T03:25:31;95801.72;;;-0.36;100.00
20624;BME280;10471;42.736;23.346;2023-01-30T03:27:58;95799.75;;;-0.40;100.00
20624;BME280;10471;42.736;23.346;2023-01-30T03:30:25;95787.38;;;-0.38;100.00
20624;BME280;10471;42.736;23.346;2023-01-30T03:32:50;95788.78;;;-0.36;100.00
20624;BME280;10471;42.736;23.346;2023-01-30T03:35:16;95788.97;;;-0.37;100.00
20624;BME280;10471;42.736;23.346;2023-01-30T03:37:43;95795.75;;;-0.36;100.00
20624;BME280;10471;42.736;23.346;2023-01-30T03:40:10;95789.41;;;-0.40;100.00
20624;BME280;10471;42.736;23.346;2023-01-30T03:42:36;95789.78;;;-0.43;100.00
20624;BME280;10471;42.736;23.346;2023-01-30T03:45:02;95784.63;;;-0.37;100.00
20624;BME280;10471;42.736;23.346;2023-01-30T03:47:27;95784.63;;;-0.30;100.00
20624;BME280;10471;42.736;23.346;2023-01-30T03:49:52;95783.44;;;-0.28;100.00
20624;BME280;10471;42.736;23.346;2023-01-30T03:52:18;95780.44;;;-0.31;100.00
20624;BME280;10471;42.736;23.346;2023-01-30T03:54:43;95778.63;;;-0.37;100.00
20624;BME280;10471;42.736;23.346;2023-01-30T03:57:08;95776.03;;;-0.37;100.00
20624;BME280;10471;42.736;23.346;2023-01-30T03:59:34;95776.25;;;-0.45;100.00
20624;BME280;10471;42.736;23.346;2023-01-30T04:01:59;95774.84;;;-0.41;100.00
20624;BME280;10471;42.736;23.346;2023-01-30T04:04:24;95778.22;;;-0.47;100.00
20624;BME280;10471;42.736;23.346;2023-01-30T04:06:50;95777.03;;;-0.45;100.00
20624;BME280;10471;42.736;23.346;2023-01-30T04:09:15;95789.97;;;-0.51;100.00
20624;BME280;10471;42.736;23.346;2023-01-30T04:11:41;95777.41;;;-0.54;100.00
20624;BME280;10471;42.736;23.346;2023-01-30T04:14:06;95771.88;;;-0.51;100.00
20624;BME280;10471;42.736;23.346;2023-01-30T04:16:32;95764.69;;;-0.49;100.00
20624;BME280;10471;42.736;23.346;2023-01-30T04:18:57;95770.47;;;-0.47;100.00
20624;BME280;10471;42.736;23.346;2023-01-30T04:21:22;95774.81;;;-0.54;100.00
20624;BME280;10471;42.736;23.346;2023-01-30T04:23:48;95765.91;;;-0.45;100.00
20624;BME280;10471;42.736;23.346;2023-01-30T04:26:13;95773.84;;;-0.53;100.00
20624;BME280;10471;42.736;23.346;2023-01-30T04:28:39;95771.03;;;-0.52;100.00
20624;BME280;10471;42.736;23.346;2023-01-30T04:31:05;95765.09;;;-0.52;100.00
20624;BME280;10471;42.736;23.346;2023-01-30T04:33:31;95762.72;;;-0.54;100.00
20624;BME280;10471;42.736;23.346;2023-01-30T04:36:00;95763.13;;;-0.50;100.00
20624;BME280;10471;42.736;23.346;2023-01-30T04:38:27;95762.72;;;-0.47;100.00
20624;BME280;10471;42.736;23.346;2023-01-30T04:40:54;95767.28;;;-0.56;100.00
20624;BME280;10471;42.736;23.346;2023-01-30T04:43:21;95769.66;;;-0.54;100.00
20624;BME280;10471;42.736;23.346;2023-01-30T04:45:48;95767.28;;;-0.56;100.00
20624;BME280;10471;42.736;23.346;2023-01-30T04:48:15;95763.69;;;-0.48;100.00
20624;BME280;10471;42.736;23.346;2023-01-30T04:50:42;95753.56;;;-0.56;100.00
20624;BME280;10471;42.736;23.346;2023-01-30T04:53:09;95745.59;;;-0.61;100.00
20624;BME280;10471;42.736;23.346;2023-01-30T04:55:34;95743.56;;;-0.59;100.00
20624;BME280;10471;42.736;23.346;2023-01-30T04:58:00;95746.78;;;-0.57;100.00
20624;BME280;10471;42.736;23.346;2023-01-30T05:00:26;95740.22;;;-0.53;100.00
20624;BME280;10471;42.736;23.346;2023-01-30T05:02:51;95733.63;;;-0.62;100.00
20624;BME280;10471;42.736;23.346;2023-01-30T05:05:17;95737.22;;;-0.63;100.00
20624;BME280;10471;42.736;23.346;2023-01-30T05:07:43;95743.38;;;-0.64;100.00
20624;BME280;10471;42.736;23.346;2023-01-30T05:10:08;95755.94;;;-0.61;100.00
20624;BME280;10471;42.736;23.346;2023-01-30T05:12:34;95747.19;;;-0.60;100.00
20624;BME280;10471;42.736;23.346;2023-01-30T05:15:00;95741.41;;;-0.56;100.00
20624;BME280;10471;42.736;23.346;2023-01-30T05:17:26;95748.38;;;-0.56;100.00
20624;BME280;10471;42.736;23.346;2023-01-30T05:19:51;95743.56;;;-0.59;100.00
20624;BME280;10471;42.736;23.346;2023-01-30T05:22:16;95743.38;;;-0.64;100.00
20624;BME280;10471;42.736;23.346;2023-01-30T05:24:42;95742.59;;;-0.65;100.00
20624;BME280;10471;42.736;23.346;2023-01-30T05:27:07;95751.16;;;-0.58;100.00
20624;BME280;10471;42.736;23.346;2023-01-30T05:29:32;95747.19;;;-0.60;100.00
20624;BME280;10471;42.736;23.346;2023-01-30T05:31:58;95748.97;;;-0.61;100.00
20624;BME280;10471;42.736;23.346;2023-01-30T05:34:23;95755.53;;;-0.58;100.00
20624;BME280;10471;42.736;23.346;2023-01-30T05:36:49;95752.34;;;-0.60;100.00
20624;BME280;10471;42.736;23.346;2023-01-30T05:39:14;95755.31;;;-0.57;100.00
20624;BME280;10471;42.736;23.346;2023-01-30T05:41:39;95759.09;;;-0.59;100.00
20624;BME280;10471;42.736;23.346;2023-01-30T05:44:05;95751.94;;;-0.57;100.00
20624;BME280;10471;42.736;23.346;2023-01-30T05:46:30;95756.34;;;-0.51;100.00
20624;BME280;10471;42.736;23.346;2023-01-30T05:48:56;95760.31;;;-0.55;100.00
20624;BME280;10471;42.736;23.346;2023-01-30T05:51:23;95754.94;;;-0.60;100.00
20624;BME280;10471;42.736;23.346;2023-01-30T05:53:49;95758.72;;;-0.56;100.00
20624;BME280;10471;42.736;23.346;2023-01-30T05:56:15;95755.13;;;-0.62;100.00
20624;BME280;10471;42.736;23.346;2023-01-30T05:58:41;95751.16;;;-0.58;100.00
20624;BME280;10471;42.736;23.346;2023-01-30T06:01:10;95759.31;;;-0.54;100.00
20624;BME280;10471;42.736;23.346;2023-01-30T06:03:36;95755.94;;;-0.61;100.00
20624;BME280;10471;42.736;23.346;2023-01-30T06:06:04;95767.88;;;-0.60;100.00
20624;BME280;10471;42.736;23.346;2023-01-30T06:08:30;95765.66;;;-0.57;100.00
20624;BME280;10471;42.736;23.346;2023-01-30T06:11:04;95765.88;;;-0.52;100.00
20624;BME280;10471;42.736;23.346;2023-01-30T06:13:30;95771.88;;;-0.45;100.00
20624;BME280;10471;42.736;23.346;2023-01-30T06:15:55;95771.88;;;-0.51;100.00
20624;BME280;10471;42.736;23.346;2023-01-30T06:18:21;95758.72;;;-0.56;100.00
20624;BME280;10471;42.736;23.346;2023-01-30T06:20:48;95758.72;;;-0.50;100.00
20624;BME280;10471;42.736;23.346;2023-01-30T06:23:14;95765.91;;;-0.45;100.00
20624;BME280;10471;42.736;23.346;2023-01-30T06:25:43;95759.50;;;-0.49;100.00
20624;BME280;10471;42.736;23.346;2023-01-30T06:28:09;95753.97;;;-0.53;100.00
20624;BME280;10471;42.736;23.346;2023-01-30T06:30:34;95759.50;;;-0.49;100.00
20624;BME280;10471;42.736;23.346;2023-01-30T06:32:59;95766.28;;;-0.61;100.00
20624;BME280;10471;42.736;23.346;2023-01-30T06:35:25;95755.94;;;-0.61;100.00
20624;BME280;10471;42.736;23.346;2023-01-30T06:37:50;95757.53;;;-0.54;100.00
20624;BME280;10471;42.736;23.346;2023-01-30T06:40:16;95753.56;;;-0.63;100.00
20624;BME280;10471;42.736;23.346;2023-01-30T06:42:45;95756.34;;;-0.51;100.00
20624;BME280;10471;42.736;23.346;2023-01-30T06:45:12;95761.31;;;-0.56;100.00
20624;BME280;10471;42.736;23.346;2023-01-30T06:50:10;95762.72;;;-0.60;100.00
20624;BME280;10471;42.736;23.346;2023-01-30T06:52:40;95759.72;;;-0.57;100.00
20624;BME280;10471;42.736;23.346;2023-01-30T06:55:05;95758.72;;;-0.43;100.00
20624;BME280;10471;42.736;23.346;2023-01-30T06:57:31;95763.91;;;-0.43;100.00
20624;BME280;10471;42.736;23.346;2023-01-30T06:59:56;95763.91;;;-0.43;100.00
20624;BME280;10471;42.736;23.346;2023-01-30T07:02:22;95759.91;;;-0.52;100.00
20624;BME280;10471;42.736;23.346;2023-01-30T07:04:47;95763.91;;;-0.43;100.00
20624;BME280;10471;42.736;23.346;2023-01-30T07:07:12;95783.41;;;-0.54;100.00
20624;BME280;10471;42.736;23.346;2023-01-30T07:09:38;95771.88;;;-0.45;100.00
20624;BME280;10471;42.736;23.346;2023-01-30T07:12:03;95777.44;;;-0.48;100.00
20624;BME280;10471;42.736;23.346;2023-01-30T07:14:29;95781.59;;;-0.53;100.00
20624;BME280;10471;42.736;23.346;2023-01-30T07:16:54;95780.59;;;-0.59;100.00
20624;BME280;10471;42.736;23.346;2023-01-30T07:19:19;95768.66;;;-0.53;100.00
20624;BME280;10471;42.736;23.346;2023-01-30T07:21:45;95774.25;;;-0.56;100.00
20624;BME280;10471;42.736;23.346;2023-01-30T07:24:10;95777.03;;;-0.51;100.00
20624;BME280;10471;42.736;23.346;2023-01-30T07:26:35;95775.84;;;-0.55;100.00
20624;BME280;10471;42.736;23.346;2023-01-30T07:29:01;95775.44;;;-0.46;100.00
20624;BME280;10471;42.736;23.346;2023-01-30T07:31:26;95780.22;;;-0.49;100.00
20624;BME280;10471;42.736;23.346;2023-01-30T07:33:52;95783.22;;;-0.39;100.00
20624;BME280;10471;42.736;23.346;2023-01-30T07:36:17;95787.00;;;-0.42;100.00
20624;BME280;10471;42.736;23.346;2023-01-30T07:38:42;95793.97;;;-0.36;100.00
20624;BME280;10471;42.736;23.346;2023-01-30T07:41:08;95791.97;;;-0.40;100.00
20624;BME280;10471;42.736;23.346;2023-01-30T07:43:33;95792.97;;;-0.41;100.00
20624;BME280;10471;42.736;23.346;2023-01-30T07:45:59;95782.41;;;-0.40;100.00
20624;BME280;10471;42.736;23.346;2023-01-30T07:48:24;95778.44;;;-0.36;100.00
20624;BME280;10471;42.736;23.346;2023-01-30T07:50:49;95775.47;;;-0.39;100.00
20624;BME280;10471;42.736;23.346;2023-01-30T07:53:16;95785.22;;;-0.41;100.00
20624;BME280;10471;42.736;23.346;2023-01-30T07:55:42;95775.47;;;-0.39;100.00
20624;BME280;10471;42.736;23.346;2023-01-30T07:58:14;95775.47;;;-0.39;100.00
20624;BME280;10471;42.736;23.346;2023-01-30T08:00:40;95761.91;;;-0.28;100.00
20624;BME280;10471;42.736;23.346;2023-01-30T08:03:05;95767.88;;;-0.41;100.00
20624;BME280;10471;42.736;23.346;2023-01-30T08:05:30;95762.91;;;-0.42;100.00
20624;BME280;10471;42.736;23.346;2023-01-30T08:07:56;95760.31;;;-0.42;100.00
20624;BME280;10471;42.736;23.346;2023-01-30T08:10:22;95750.38;;;-0.32;100.00
20624;BME280;10471;42.736;23.346;2023-01-30T08:12:49;95753.94;;;-0.33;100.00
20624;BME280;10471;42.736;23.346;2023-01-30T08:15:15;95753.56;;;-0.30;100.00
20624;BME280;10471;42.736;23.346;2023-01-30T08:17:40;95752.38;;;-0.28;100.00
20624;BME280;10471;42.736;23.346;2023-01-30T08:20:06;95746.00;;;-0.19;100.00
20624;BME280;10471;42.736;23.346;2023-01-30T08:22:32;95754.75;;;-0.26;100.00
20624;BME280;10471;42.736;23.346;2023-01-30T08:24:57;95749.16;;;-0.23;100.00
20624;BME280;10471;42.736;23.346;2023-01-30T08:27:23;95749.56;;;-0.20;100.00
20624;BME280;10471;42.736;23.346;2023-01-30T08:29:48;95742.00;;;-0.21;100.00
20624;BME280;10471;42.736;23.346;2023-01-30T08:32:13;95743.59;;;-0.20;100.00
20624;BME280;10471;42.736;23.346;2023-01-30T08:34:39;95750.00;;;-0.29;100.00
20624;BME280;10471;42.736;23.346;2023-01-30T08:37:04;95739.41;;;-0.21;100.00
20624;BME280;10471;42.736;23.346;2023-01-30T08:39:30;95746.19;;;-0.20;100.00
20624;BME280;10471;42.736;23.346;2023-01-30T08:41:55;95731.44;;;-0.20;100.00
20624;BME280;10471;42.736;23.346;2023-01-30T08:44:21;95734.06;;;-0.13;100.00
20624;BME280;10471;42.736;23.346;2023-01-30T08:46:46;95737.03;;;-0.16;100.00
20624;BME280;10471;42.736;23.346;2023-01-30T08:49:11;95734.25;;;-0.21;100.00
20624;BME280;10471;42.736;23.346;2023-01-30T08:51:37;95736.22;;;-0.10;100.00
20624;BME280;10471;42.736;23.346;2023-01-30T08:54:03;95726.06;;;0.07;100.00
20624;BME280;10471;42.736;23.346;2023-01-30T08:56:28;95730.84;;;-0.03;100.00
20624;BME280;10471;42.736;23.346;2023-01-30T08:58:53;95726.44;;;0.04;100.00
20624;BME280;10471;42.736;23.346;2023-01-30T09:01:19;95719.06;;;0.14;100.00
20624;BME280;10471;42.736;23.346;2023-01-30T09:03:44;95717.22;;;0.28;100.00
20624;BME280;10471;42.736;23.346;2023-01-30T09:06:10;95719.25;;;0.19;100.00
20624;BME280;10471;42.736;23.346;2023-01-30T09:08:35;95715.84;;;0.25;100.00
20624;BME280;10471;42.736;23.346;2023-01-30T09:11:03;95722.78;;;0.38;100.00
20624;BME280;10471;42.736;23.346;2023-01-30T09:13:30;95714.59;;;0.47;100.00
20624;BME280;10471;42.736;23.346;2023-01-30T09:15:56;95715.19;;;0.43;100.00
20624;BME280;10471;42.736;23.346;2023-01-30T09:18:22;95712.22;;;0.46;100.00
20624;BME280;10471;42.736;23.346;2023-01-30T09:20:47;95708.88;;;0.19;100.00
20624;BME280;10471;42.736;23.346;2023-01-30T09:23:13;95710.28;;;0.28;100.00
20624;BME280;10471;42.736;23.346;2023-01-30T09:25:38;95718.03;;;0.35;100.00
20624;BME280;10471;42.736;23.346;2023-01-30T09:28:04;95714.88;;;0.13;100.00
20624;BME280;10471;42.736;23.346;2023-01-30T09:30:29;95716.06;;;0.17;100.00
20624;BME280;10471;42.736;23.346;2023-01-30T09:32:54;95713.50;;;0.17;100.00
20624;BME280;10471;42.736;23.346;2023-01-30T09:35:20;95707.69;;;0.28;100.00
20624;BME280;10471;42.736;23.346;2023-01-30T09:37:51;95704.09;;;0.23;100.00
20624;BME280;10471;42.736;23.346;2023-01-30T09:40:20;95699.50;;;0.18;100.00
20624;BME280;10471;42.736;23.346;2023-01-30T09:48:37;95694.56;;;0.23;100.00
20624;BME280;10471;42.736;23.346;2023-01-30T09:51:08;95695.72;;;0.21;100.00
20624;BME280;10471;42.736;23.346;2023-01-30T09:56:23;95694.16;;;0.20;100.00
20624;BME280;10471;42.736;23.346;2023-01-30T09:58:54;95688.03;;;0.01;100.00
20624;BME280;10471;42.736;23.346;2023-01-30T10:01:36;95685.00;;;0.11;100.00
20624;BME280;10471;42.736;23.346;2023-01-30T10:04:13;95673.63;;;0.12;100.00
20624;BME280;10471;42.736;23.346;2023-01-30T10:06:50;95677.41;;;0.22;100.00
20624;BME280;10471;42.736;23.346;2023-01-30T10:09:37;95679.38;;;0.27;100.00
20624;BME280;10471;42.736;23.346;2023-01-30T10:20:34;95648.75;;;0.17;100.00
20624;BME280;10471;42.736;23.346;2023-01-30T10:26:01;95641.09;;;0.35;100.00
20624;BME280;10471;42.736;23.346;2023-01-30T10:28:37;95632.72;;;0.33;100.00
20624;BME280;10471;42.736;23.346;2023-01-30T10:31:08;95636.72;;;0.36;100.00
20624;BME280;10471;42.736;23.346;2023-01-30T10:33:39;95628.72;;;0.37;100.00
20624;BME280;10471;42.736;23.346;2023-01-30T10:36:40;95619.19;;;0.31;100.00
20624;BME280;10471;42.736;23.346;2023-01-30T10:39:25;95623.38;;;0.32;100.00
20624;BME280;10471;42.736;23.346;2023-01-30T10:42:08;95625.75;;;0.34;100.00
20624;BME280;10471;42.736;23.346;2023-01-30T10:44:34;95610.81;;;0.29;100.00
20624;BME280;10471;42.736;23.346;2023-01-30T10:47:25;95608.00;;;0.37;100.00
20624;BME280;10471;42.736;23.346;2023-01-30T10:50:00;95602.38;;;0.47;100.00
20624;BME280;10471;42.736;23.346;2023-01-30T10:58:11;95581.66;;;0.40;100.00
20624;BME280;10471;42.736;23.346;2023-01-30T11:01:05;95574.06;;;0.45;100.00
20624;BME280;10471;42.736;23.346;2023-01-30T11:03:40;95569.78;;;0.26;100.00
20624;BME280;10471;42.736;23.346;2023-01-30T11:06:13;95567.78;;;0.28;100.00
20624;BME280;10471;42.736;23.346;2023-01-30T11:08:41;95559.31;;;0.46;100.00
20624;BME280;10471;42.736;23.346;2023-01-30T11:14:13;95548.63;;;0.66;100.00
20624;BME280;10471;42.736;23.346;2023-01-30T11:19:13;95533.31;;;0.59;100.00
20624;BME280;10471;42.736;23.346;2023-01-30T11:21:40;95535.84;;;0.65;100.00
20624;BME280;10471;42.736;23.346;2023-01-30T11:24:40;95532.53;;;0.58;100.00
20624;BME280;10471;42.736;23.346;2023-01-30T11:29:38;95518.56;;;0.59;100.00
20624;BME280;10471;42.736;23.346;2023-01-30T11:32:13;95515.31;;;0.70;100.00
20624;BME280;10471;42.736;23.346;2023-01-30T11:34:42;95513.75;;;0.63;100.00
20624;BME280;10471;42.736;23.346;2023-01-30T11:37:34;95505.25;;;0.56;100.00
20624;BME280;10471;42.736;23.346;2023-01-30T11:40:17;95506.66;;;0.76;100.00
20624;BME280;10471;42.736;23.346;2023-01-30T11:42:50;95498.16;;;0.69;100.00
20624;BME280;10471;42.736;23.346;2023-01-30T11:45:19;95488.50;;;0.76;100.00
20624;BME280;10471;42.736;23.346;2023-01-30T11:47:58;95479.31;;;0.80;100.00
20624;BME280;10471;42.736;23.346;2023-01-30T11:50:28;95476.00;;;0.91;100.00
20624;BME280;10471;42.736;23.346;2023-01-30T11:53:00;95470.53;;;0.81;100.00
20624;BME280;10471;42.736;23.346;2023-01-30T11:55:27;95466.06;;;0.70;100.00
20624;BME280;10471;42.736;23.346;2023-01-30T11:57:58;95471.06;;;0.65;100.00
20624;BME280;10471;42.736;23.346;2023-01-30T12:00:45;95458.38;;;0.57;100.00
20624;BME280;10471;42.736;23.346;2023-01-30T12:03:15;95453.88;;;0.70;100.00
20624;BME280;10471;42.736;23.346;2023-01-30T12:05:44;95450.38;;;0.59;100.00
20624;BME280;10471;42.736;23.346;2023-01-30T12:10:50;95446.72;;;0.66;100.00
20624;BME280;10471;42.736;23.346;2023-01-30T12:13:32;95441.16;;;0.63;100.00
20624;BME280;10471;42.736;23.346;2023-01-30T12:19:00;95431.03;;;0.61;100.00
20624;BME280;10471;42.736;23.346;2023-01-30T12:24:39;95435.09;;;0.75;100.00
20624;BME280;10471;42.736;23.346;2023-01-30T12:27:42;95416.06;;;0.63;100.00
20624;BME280;10471;42.736;23.346;2023-01-30T12:30:34;95399.91;;;0.61;100.00
20624;BME280;10471;42.736;23.346;2023-01-30T12:33:03;95404.84;;;0.69;100.00
20624;BME280;10471;42.736;23.346;2023-01-30T12:41:52;95387.25;;;0.71;100.00
20624;BME280;10471;42.736;23.346;2023-01-30T12:49:40;95381.50;;;0.87;100.00
20624;BME280;10471;42.736;23.346;2023-01-30T12:55:18;95372.81;;;0.81;100.00
20624;BME280;10471;42.736;23.346;2023-01-30T12:57:59;95378.38;;;0.85;100.00
20624;BME280;10471;42.736;23.346;2023-01-30T13:03:21;95373.97;;;0.85;100.00
20624;BME280;10471;42.736;23.346;2023-01-30T13:06:03;95374.16;;;0.66;100.00
20624;BME280;10471;42.736;23.346;2023-01-30T13:19:43;95360.34;;;0.54;100.00
20624;BME280;10471;42.736;23.346;2023-01-30T13:25:07;95366.97;;;0.68;100.00
20624;BME280;10471;42.736;23.346;2023-01-30T13:27:43;95355.16;;;0.72;100.00
20624;BME280;10471;42.736;23.346;2023-01-30T13:30:13;95343.69;;;0.79;100.00
20624;BME280;10471;42.736;23.346;2023-01-30T13:32:44;95338.38;;;0.92;100.00
20624;BME280;10471;42.736;23.346;2023-01-30T13:35:20;95337.22;;;0.88;100.00
20624;BME280;10471;42.736;23.346;2023-01-30T13:37:48;95336.50;;;0.81;100.00
20624;BME280;10471;42.736;23.346;2023-01-30T13:40:25;95332.38;;;0.92;100.00
20624;BME280;10471;42.736;23.346;2023-01-30T13:43:05;95329.03;;;0.91;100.00
20624;BME280;10471;42.736;23.346;2023-01-30T13:45:36;95323.63;;;0.75;100.00
20624;BME280;10471;42.736;23.346;2023-01-30T13:48:42;95319.88;;;0.89;100.00
20624;BME280;10471;42.736;23.346;2023-01-30T13:51:20;95323.34;;;1.01;100.00
20624;BME280;10471;42.736;23.346;2023-01-30T13:53:56;95318.78;;;0.96;100.00
20624;BME280;10471;42.736;23.346;2023-01-30T13:56:42;95321.88;;;1.05;100.00
20624;BME280;10471;42.736;23.346;2023-01-30T14:09:41;95315.69;;;0.88;100.00
20624;BME280;10471;42.736;23.346;2023-01-30T14:12:18;95321.03;;;0.75;100.00
20624;BME280;10471;42.736;23.346;2023-01-30T14:14:58;95321.31;;;0.85;100.00
20624;BME280;10471;42.736;23.346;2023-01-30T14:17:24;95320.59;;;0.78;100.00
20624;BME280;10471;42.736;23.346;2023-01-30T14:20:19;95329.81;;;0.74;100.00
20624;BME280;10471;42.736;23.346;2023-01-30T14:22:54;95312.53;;;0.68;100.00
20624;BME280;10471;42.736;23.346;2023-01-30T14:35:44;95316.28;;;0.72;100.00
20624;BME280;10471;42.736;23.346;2023-01-30T14:38:13;95320.66;;;0.71;100.00
20624;BME280;10471;42.736;23.346;2023-01-30T14:41:15;95318.72;;;0.67;100.00
20624;BME280;10471;42.736;23.346;2023-01-30T14:59:52;95298.13;;;0.12;100.00
20624;BME280;10471;42.736;23.346;2023-01-30T15:02:25;95281.44;;;0.08;100.00
20624;BME280;10471;42.736;23.346;2023-01-30T15:07:47;95288.69;;;-0.01;100.00
20624;BME280;10471;42.736;23.346;2023-01-30T15:10:51;95285.34;;;-0.07;100.00
20624;BME280;10471;42.736;23.346;2023-01-30T15:16:38;95296.19;;;-0.17;100.00
20624;BME280;10471;42.736;23.346;2023-01-30T15:19:34;95297.19;;;-0.18;100.00
20624;BME280;10471;42.736;23.346;2023-01-30T15:22:10;95304.00;;;-0.23;100.00
20624;BME280;10471;42.736;23.346;2023-01-30T15:35:39;95313.69;;;-0.37;100.00
20624;BME280;10471;42.736;23.346;2023-01-30T15:38:04;95305.03;;;-0.31;100.00